sensor_id;sensor_type;location;lat;lon;timestamp;temperature;humidity
18321;DHT22;54904;54.350;18.664;2022-11-13T00:00:43;16.20;99.90
18321;DHT22;54904;54.350;18.664;2022-11-13T00:03:29;16.10;99.90
18321;DHT22;54904;54.350;18.664;2022-11-13T00:06:17;16.20;99.90
18321;DHT22;54904;54.350;18.664;2022-11-13T00:09:03;16.10;99.90
18321;DHT22;54904;54.350;18.664;2022-11-13T00:11:48;16.20;99.90
18321;DHT22;54904;54.350;18.664;2022-11-13T00:14:34;16.20;99.90
18321;DHT22;54904;54.350;18.664;2022-11-13T00:17:19;16.20;99.90
18321;DHT22;54904;54.350;18.664;2022-11-13T00:20:06;16.10;99.90
18321;DHT22;54904;54.350;18.664;2022-11-13T00:22:53;16.20;99.90
18321;DHT22;54904;54.350;18.664;2022-11-13T00:25:38;16.10;99.90
18321;DHT22;54904;54.350;18.664;2022-11-13T00:28:24;16.20;99.90
18321;DHT22;54904;54.350;18.664;2022-11-13T00:31:11;16.20;99.90
18321;DHT22;54904;54.350;18.664;2022-11-13T00:33:57;16.20;99.90
18321;DHT22;54904;54.350;18.664;2022-11-13T00:36:43;16.10;99.90
18321;DHT22;54904;54.350;18.664;2022-11-13T00:39:31;16.10;99.90
18321;DHT22;54904;54.350;18.664;2022-11-13T00:42:16;16.10;99.90
18321;DHT22;54904;54.350;18.664;2022-11-13T00:45:02;16.10;99.90
18321;DHT22;54904;54.350;18.664;2022-11-13T00:47:47;16.10;99.90
18321;DHT22;54904;54.350;18.664;2022-11-13T00:50:33;16.10;99.90
18321;DHT22;54904;54.350;18.664;2022-11-13T00:53:18;16.10;99.90
18321;DHT22;54904;54.350;18.664;2022-11-13T00:56:06;16.10;99.90
18321;DHT22;54904;54.350;18.664;2022-11-13T00:58:51;16.10;99.90
18321;DHT22;54904;54.350;18.664;2022-11-13T01:01:37;16.10;99.90
18321;DHT22;54904;54.350;18.664;2022-11-13T01:04:22;16.10;99.90
18321;DHT22;54904;54.350;18.664;2022-11-13T01:07:08;16.20;99.90
18321;DHT22;54904;54.350;18.664;2022-11-13T01:09:53;16.20;99.90
18321;DHT22;54904;54.350;18.664;2022-11-13T01:12:40;16.10;99.90
18321;DHT22;54904;54.350;18.664;2022-11-13T01:15:26;16.10;99.90
18321;DHT22;54904;54.350;18.664;2022-11-13T01:18:12;16.10;99.90
18321;DHT22;54904;54.350;18.664;2022-11-13T01:21:02;16.10;99.90
18321;DHT22;54904;54.350;18.664;2022-11-13T01:23:48;16.10;99.90
18321;DHT22;54904;54.350;18.664;2022-11-13T01:26:33;16.10;99.90
18321;DHT22;54904;54.350;18.664;2022-11-13T01:29:20;16.10;99.90
18321;DHT22;54904;54.350;18.664;2022-11-13T01:32:06;16.10;99.90
18321;DHT22;54904;54.350;18.664;2022-11-13T01:34:51;16.10;99.90
18321;DHT22;54904;54.350;18.664;2022-11-13T01:37:37;16.10;99.90
18321;DHT22;54904;54.350;18.664;2022-11-13T01:40:22;16.10;99.90
18321;DHT22;54904;54.350;18.664;2022-11-13T01:43:21;16.10;99.90
18321;DHT22;54904;54.350;18.664;2022-11-13T01:46:27;16.10;99.90
18321;DHT22;54904;54.350;18.664;2022-11-13T01:49:26;16.10;99.90
18321;DHT22;54904;54.350;18.664;2022-11-13T01:52:15;16.10;99.90
18321;DHT22;54904;54.350;18.664;2022-11-13T01:55:03;16.10;99.90
18321;DHT22;54904;54.350;18.664;2022-11-13T01:57:50;16.10;99.90
18321;DHT22;54904;54.350;18.664;2022-11-13T02:00:35;16.10;99.90
18321;DHT22;54904;54.350;18.664;2022-11-13T02:03:22;16.10;99.90
18321;DHT22;54904;54.350;18.664;2022-11-13T02:06:08;16.10;99.90
18321;DHT22;54904;54.350;18.664;2022-11-13T02:08:53;16.10;99.90
18321;DHT22;54904;54.350;18.664;2022-11-13T02:11:39;16.00;99.90
18321;DHT22;54904;54.350;18.664;2022-11-13T02:14:26;16.10;99.90
18321;DHT22;54904;54.350;18.664;2022-11-13T02:17:17;16.10;99.90
18321;DHT22;54904;54.350;18.664;2022-11-13T02:20:07;16.10;99.90
18321;DHT22;54904;54.350;18.664;2022-11-13T02:22:58;16.00;99.90
18321;DHT22;54904;54.350;18.664;2022-11-13T02:25:50;16.10;99.90
18321;DHT22;54904;54.350;18.664;2022-11-13T02:28:37;16.00;99.90
18321;DHT22;54904;54.350;18.664;2022-11-13T02:31:22;16.10;99.90
18321;DHT22;54904;54.350;18.664;2022-11-13T02:34:08;16.00;99.90
18321;DHT22;54904;54.350;18.664;2022-11-13T02:36:54;16.10;99.90
18321;DHT22;54904;54.350;18.664;2022-11-13T02:39:40;16.00;99.90
18321;DHT22;54904;54.350;18.664;2022-11-13T02:42:26;16.00;99.90
18321;DHT22;54904;54.350;18.664;2022-11-13T02:45:12;16.00;99.90
18321;DHT22;54904;54.350;18.664;2022-11-13T02:47:59;16.00;99.90
18321;DHT22;54904;54.350;18.664;2022-11-13T02:50:45;16.00;99.90
18321;DHT22;54904;54.350;18.664;2022-11-13T02:53:31;16.00;99.90
18321;DHT22;54904;54.350;18.664;2022-11-13T02:56:17;16.00;99.90
18321;DHT22;54904;54.350;18.664;2022-11-13T02:59:04;16.00;99.90
18321;DHT22;54904;54.350;18.664;2022-11-13T03:01:49;16.00;99.90
18321;DHT22;54904;54.350;18.664;2022-11-13T03:04:34;16.10;99.90
18321;DHT22;54904;54.350;18.664;2022-11-13T03:07:20;16.00;99.90
18321;DHT22;54904;54.350;18.664;2022-11-13T03:10:07;16.10;99.90
18321;DHT22;54904;54.350;18.664;2022-11-13T03:12:53;16.00;99.90
18321;DHT22;54904;54.350;18.664;2022-11-13T03:15:40;16.10;99.90
18321;DHT22;54904;54.350;18.664;2022-11-13T03:18:25;16.10;99.90
18321;DHT22;54904;54.350;18.664;2022-11-13T03:21:12;16.10;99.90
18321;DHT22;54904;54.350;18.664;2022-11-13T03:23:57;16.00;99.90
18321;DHT22;54904;54.350;18.664;2022-11-13T03:26:43;16.00;99.90
18321;DHT22;54904;54.350;18.664;2022-11-13T03:29:29;16.10;99.90
18321;DHT22;54904;54.350;18.664;2022-11-13T03:32:16;16.10;99.90
18321;DHT22;54904;54.350;18.664;2022-11-13T03:35:02;16.00;99.90
18321;DHT22;54904;54.350;18.664;2022-11-13T03:37:48;16.00;99.90
18321;DHT22;54904;54.350;18.664;2022-11-13T03:40:33;16.10;99.90
18321;DHT22;54904;54.350;18.664;2022-11-13T03:43:18;16.10;99.90
18321;DHT22;54904;54.350;18.664;2022-11-13T03:46:04;16.00;99.90
18321;DHT22;54904;54.350;18.664;2022-11-13T03:48:51;16.00;99.90
18321;DHT22;54904;54.350;18.664;2022-11-13T03:51:36;16.10;99.90
18321;DHT22;54904;54.350;18.664;2022-11-13T03:54:22;16.00;99.90
18321;DHT22;54904;54.350;18.664;2022-11-13T03:57:07;16.00;99.90
18321;DHT22;54904;54.350;18.664;2022-11-13T03:59:53;16.00;99.90
18321;DHT22;54904;54.350;18.664;2022-11-13T04:02:39;16.00;99.90
18321;DHT22;54904;54.350;18.664;2022-11-13T04:05:26;16.00;99.90
18321;DHT22;54904;54.350;18.664;2022-11-13T04:08:12;16.00;99.90
18321;DHT22;54904;54.350;18.664;2022-11-13T04:11:05;16.00;99.90
18321;DHT22;54904;54.350;18.664;2022-11-13T04:13:50;16.00;99.90
18321;DHT22;54904;54.350;18.664;2022-11-13T04:16:36;16.00;99.90
18321;DHT22;54904;54.350;18.664;2022-11-13T04:19:21;16.10;99.90
18321;DHT22;54904;54.350;18.664;2022-11-13T04:22:08;16.00;99.90
18321;DHT22;54904;54.350;18.664;2022-11-13T04:24:54;16.10;99.90
18321;DHT22;54904;54.350;18.664;2022-11-13T04:27:39;16.00;99.90
18321;DHT22;54904;54.350;18.664;2022-11-13T04:30:25;16.10;99.90
18321;DHT22;54904;54.350;18.664;2022-11-13T04:33:11;16.00;99.90
18321;DHT22;54904;54.350;18.664;2022-11-13T04:35:56;16.10;99.90
18321;DHT22;54904;54.350;18.664;2022-11-13T04:38:43;16.10;99.90
18321;DHT22;54904;54.350;18.664;2022-11-13T04:41:28;16.00;99.90
18321;DHT22;54904;54.350;18.664;2022-11-13T04:44:31;16.00;99.90
18321;DHT22;54904;54.350;18.664;2022-11-13T04:47:17;16.00;99.90
18321;DHT22;54904;54.350;18.664;2022-11-13T04:50:03;16.00;99.90
18321;DHT22;54904;54.350;18.664;2022-11-13T04:52:49;16.00;99.90
18321;DHT22;54904;54.350;18.664;2022-11-13T04:55:36;16.00;99.90
18321;DHT22;54904;54.350;18.664;2022-11-13T04:58:21;16.00;99.90
18321;DHT22;54904;54.350;18.664;2022-11-13T05:01:07;16.00;99.90
18321;DHT22;54904;54.350;18.664;2022-11-13T05:03:52;16.00;99.90
18321;DHT22;54904;54.350;18.664;2022-11-13T05:06:39;16.00;99.90
18321;DHT22;54904;54.350;18.664;2022-11-13T05:09:25;16.00;99.90
18321;DHT22;54904;54.350;18.664;2022-11-13T05:12:12;16.10;99.90
18321;DHT22;54904;54.350;18.664;2022-11-13T05:14:57;16.00;99.90
18321;DHT22;54904;54.350;18.664;2022-11-13T05:17:43;16.00;99.90
18321;DHT22;54904;54.350;18.664;2022-11-13T05:20:28;16.00;99.90
18321;DHT22;54904;54.350;18.664;2022-11-13T05:23:14;16.00;99.90
18321;DHT22;54904;54.350;18.664;2022-11-13T05:26:01;16.00;99.90
18321;DHT22;54904;54.350;18.664;2022-11-13T05:28:48;16.00;99.90
18321;DHT22;54904;54.350;18.664;2022-11-13T05:31:33;16.00;99.90
18321;DHT22;54904;54.350;18.664;2022-11-13T05:34:19;16.00;99.90
18321;DHT22;54904;54.350;18.664;2022-11-13T05:37:04;16.00;99.90
18321;DHT22;54904;54.350;18.664;2022-11-13T05:39:50;16.00;99.90
18321;DHT22;54904;54.350;18.664;2022-11-13T05:42:35;16.00;99.90
18321;DHT22;54904;54.350;18.664;2022-11-13T05:45:22;16.00;99.90
18321;DHT22;54904;54.350;18.664;2022-11-13T05:48:07;16.00;99.90
18321;DHT22;54904;54.350;18.664;2022-11-13T05:50:53;16.00;99.90
18321;DHT22;54904;54.350;18.664;2022-11-13T05:53:39;16.00;99.90
18321;DHT22;54904;54.350;18.664;2022-11-13T05:56:27;16.00;99.90
18321;DHT22;54904;54.350;18.664;2022-11-13T05:59:13;16.00;99.90
18321;DHT22;54904;54.350;18.664;2022-11-13T06:02:00;16.00;99.90
18321;DHT22;54904;54.350;18.664;2022-11-13T06:04:47;16.00;99.90
18321;DHT22;54904;54.350;18.664;2022-11-13T06:07:32;15.90;99.90
18321;DHT22;54904;54.350;18.664;2022-11-13T06:10:18;16.00;99.90
18321;DHT22;54904;54.350;18.664;2022-11-13T06:13:04;16.00;99.90
18321;DHT22;54904;54.350;18.664;2022-11-13T06:15:49;16.00;99.90
18321;DHT22;54904;54.350;18.664;2022-11-13T06:18:37;16.00;99.90
18321;DHT22;54904;54.350;18.664;2022-11-13T06:21:25;16.00;99.90
18321;DHT22;54904;54.350;18.664;2022-11-13T06:24:11;16.00;99.90
18321;DHT22;54904;54.350;18.664;2022-11-13T06:26:57;16.00;99.90
18321;DHT22;54904;54.350;18.664;2022-11-13T06:29:42;16.10;99.90
18321;DHT22;54904;54.350;18.664;2022-11-13T06:32:28;16.00;99.90
18321;DHT22;54904;54.350;18.664;2022-11-13T06:35:15;16.00;99.90
18321;DHT22;54904;54.350;18.664;2022-11-13T06:38:00;16.10;99.90
18321;DHT22;54904;54.350;18.664;2022-11-13T06:40:46;16.00;99.90
18321;DHT22;54904;54.350;18.664;2022-11-13T06:43:32;16.00;99.90
18321;DHT22;54904;54.350;18.664;2022-11-13T06:46:19;16.10;99.90
18321;DHT22;54904;54.350;18.664;2022-11-13T06:49:05;16.10;99.90
18321;DHT22;54904;54.350;18.664;2022-11-13T06:51:52;16.00;99.90
18321;DHT22;54904;54.350;18.664;2022-11-13T06:54:38;16.00;99.90
18321;DHT22;54904;54.350;18.664;2022-11-13T06:57:24;16.10;99.90
18321;DHT22;54904;54.350;18.664;2022-11-13T07:00:10;16.10;99.90
18321;DHT22;54904;54.350;18.664;2022-11-13T07:02:56;16.10;99.90
18321;DHT22;54904;54.350;18.664;2022-11-13T07:05:42;16.00;99.90
18321;DHT22;54904;54.350;18.664;2022-11-13T07:08:29;16.00;99.90
18321;DHT22;54904;54.350;18.664;2022-11-13T07:11:16;16.00;99.90
18321;DHT22;54904;54.350;18.664;2022-11-13T07:14:02;16.00;99.90
18321;DHT22;54904;54.350;18.664;2022-11-13T07:16:47;16.10;99.90
18321;DHT22;54904;54.350;18.664;2022-11-13T07:19:33;16.00;99.90
18321;DHT22;54904;54.350;18.664;2022-11-13T07:22:18;16.10;99.90
18321;DHT22;54904;54.350;18.664;2022-11-13T07:25:06;16.10;99.90
18321;DHT22;54904;54.350;18.664;2022-11-13T07:27:52;16.10;99.90
18321;DHT22;54904;54.350;18.664;2022-11-13T07:30:38;16.10;99.90
18321;DHT22;54904;54.350;18.664;2022-11-13T07:33:24;16.10;99.90
18321;DHT22;54904;54.350;18.664;2022-11-13T07:36:10;16.10;99.90
18321;DHT22;54904;54.350;18.664;2022-11-13T07:38:55;16.10;99.90
18321;DHT22;54904;54.350;18.664;2022-11-13T07:41:42;16.10;99.90
18321;DHT22;54904;54.350;18.664;2022-11-13T07:44:28;16.10;99.90
18321;DHT22;54904;54.350;18.664;2022-11-13T07:47:13;16.10;99.90
18321;DHT22;54904;54.350;18.664;2022-11-13T07:49:59;16.10;99.90
18321;DHT22;54904;54.350;18.664;2022-11-13T07:52:44;16.10;99.90
18321;DHT22;54904;54.350;18.664;2022-11-13T07:55:31;16.10;99.90
18321;DHT22;54904;54.350;18.664;2022-11-13T07:58:18;16.10;99.90
18321;DHT22;54904;54.350;18.664;2022-11-13T08:01:05;16.10;99.90
18321;DHT22;54904;54.350;18.664;2022-11-13T08:03:50;16.10;99.90
18321;DHT22;54904;54.350;18.664;2022-11-13T08:06:36;16.10;99.90
18321;DHT22;54904;54.350;18.664;2022-11-13T08:09:22;16.20;99.90
18321;DHT22;54904;54.350;18.664;2022-11-13T08:12:07;16.10;99.90
18321;DHT22;54904;54.350;18.664;2022-11-13T08:14:54;16.20;99.90
18321;DHT22;54904;54.350;18.664;2022-11-13T08:17:40;16.20;99.90
18321;DHT22;54904;54.350;18.664;2022-11-13T08:20:26;16.20;99.90
18321;DHT22;54904;54.350;18.664;2022-11-13T08:23:12;16.20;99.90
18321;DHT22;54904;54.350;18.664;2022-11-13T08:25:57;16.20;99.90
18321;DHT22;54904;54.350;18.664;2022-11-13T08:28:47;16.20;99.90
18321;DHT22;54904;54.350;18.664;2022-11-13T08:31:35;16.30;99.90
18321;DHT22;54904;54.350;18.664;2022-11-13T08:34:21;16.30;99.90
18321;DHT22;54904;54.350;18.664;2022-11-13T08:37:06;16.30;99.90
18321;DHT22;54904;54.350;18.664;2022-11-13T08:39:52;16.30;99.90
18321;DHT22;54904;54.350;18.664;2022-11-13T08:42:37;16.30;99.90
18321;DHT22;54904;54.350;18.664;2022-11-13T08:45:23;16.30;99.90
18321;DHT22;54904;54.350;18.664;2022-11-13T08:48:10;16.40;99.90
18321;DHT22;54904;54.350;18.664;2022-11-13T08:50:56;16.40;99.90
18321;DHT22;54904;54.350;18.664;2022-11-13T08:53:42;16.50;99.90
18321;DHT22;54904;54.350;18.664;2022-11-13T08:56:27;16.50;99.90
18321;DHT22;54904;54.350;18.664;2022-11-13T08:59:14;16.50;99.90
18321;DHT22;54904;54.350;18.664;2022-11-13T09:01:59;16.50;99.90
18321;DHT22;54904;54.350;18.664;2022-11-13T09:04:46;16.60;99.90
18321;DHT22;54904;54.350;18.664;2022-11-13T09:07:32;16.60;99.90
18321;DHT22;54904;54.350;18.664;2022-11-13T09:10:18;16.60;99.90
18321;DHT22;54904;54.350;18.664;2022-11-13T09:13:04;16.60;99.90
18321;DHT22;54904;54.350;18.664;2022-11-13T09:15:51;16.60;99.90
18321;DHT22;54904;54.350;18.664;2022-11-13T09:18:37;16.70;99.90
18321;DHT22;54904;54.350;18.664;2022-11-13T09:21:24;16.70;99.90
18321;DHT22;54904;54.350;18.664;2022-11-13T09:24:09;16.70;99.90
18321;DHT22;54904;54.350;18.664;2022-11-13T09:26:55;16.60;99.90
18321;DHT22;54904;54.350;18.664;2022-11-13T09:29:40;16.70;99.90
18321;DHT22;54904;54.350;18.664;2022-11-13T09:32:26;16.70;99.90
18321;DHT22;54904;54.350;18.664;2022-11-13T09:35:11;16.70;99.90
18321;DHT22;54904;54.350;18.664;2022-11-13T09:37:59;16.70;99.90
18321;DHT22;54904;54.350;18.664;2022-11-13T09:40:48;16.70;99.90
18321;DHT22;54904;54.350;18.664;2022-11-13T09:43:38;16.70;99.90
18321;DHT22;54904;54.350;18.664;2022-11-13T09:46:33;16.70;99.90
18321;DHT22;54904;54.350;18.664;2022-11-13T09:49:24;16.70;99.90
18321;DHT22;54904;54.350;18.664;2022-11-13T09:52:14;16.70;99.90
18321;DHT22;54904;54.350;18.664;2022-11-13T09:55:01;16.70;99.90
18321;DHT22;54904;54.350;18.664;2022-11-13T09:57:51;16.70;99.90
18321;DHT22;54904;54.350;18.664;2022-11-13T10:00:39;16.70;99.90
18321;DHT22;54904;54.350;18.664;2022-11-13T10:03:30;16.70;99.90
18321;DHT22;54904;54.350;18.664;2022-11-13T10:06:24;16.70;99.90
18321;DHT22;54904;54.350;18.664;2022-11-13T10:09:21;16.70;99.90
18321;DHT22;54904;54.350;18.664;2022-11-13T10:12:12;16.70;99.90
18321;DHT22;54904;54.350;18.664;2022-11-13T10:15:01;16.70;99.90
18321;DHT22;54904;54.350;18.664;2022-11-13T10:17:49;16.70;99.90
18321;DHT22;54904;54.350;18.664;2022-11-13T10:20:38;16.80;99.90
18321;DHT22;54904;54.350;18.664;2022-11-13T10:23:27;16.70;99.90
18321;DHT22;54904;54.350;18.664;2022-11-13T10:26:16;16.80;99.90
18321;DHT22;54904;54.350;18.664;2022-11-13T10:29:12;16.80;99.90
18321;DHT22;54904;54.350;18.664;2022-11-13T10:31:58;16.80;99.90
18321;DHT22;54904;54.350;18.664;2022-11-13T10:34:48;16.80;99.90
18321;DHT22;54904;54.350;18.664;2022-11-13T10:37:55;16.80;99.90
18321;DHT22;54904;54.350;18.664;2022-11-13T10:40:42;16.80;99.90
18321;DHT22;54904;54.350;18.664;2022-11-13T10:43:28;16.80;99.90
18321;DHT22;54904;54.350;18.664;2022-11-13T10:46:18;16.80;99.90
18321;DHT22;54904;54.350;18.664;2022-11-13T10:49:12;16.80;99.90
18321;DHT22;54904;54.350;18.664;2022-11-13T10:51:59;16.80;99.90
18321;DHT22;54904;54.350;18.664;2022-11-13T10:54:45;16.90;99.90
18321;DHT22;54904;54.350;18.664;2022-11-13T10:57:32;16.80;99.90
18321;DHT22;54904;54.350;18.664;2022-11-13T11:00:20;16.90;99.90
18321;DHT22;54904;54.350;18.664;2022-11-13T11:03:13;16.80;99.90
18321;DHT22;54904;54.350;18.664;2022-11-13T11:06:00;16.90;99.90
18321;DHT22;54904;54.350;18.664;2022-11-13T11:08:46;16.90;99.90
18321;DHT22;54904;54.350;18.664;2022-11-13T11:11:31;16.90;99.90
18321;DHT22;54904;54.350;18.664;2022-11-13T11:14:38;16.80;99.90
18321;DHT22;54904;54.350;18.664;2022-11-13T11:17:37;16.90;99.90
18321;DHT22;54904;54.350;18.664;2022-11-13T11:20:36;16.80;99.90
18321;DHT22;54904;54.350;18.664;2022-11-13T11:23:28;16.80;99.90
18321;DHT22;54904;54.350;18.664;2022-11-13T11:26:20;16.70;99.90
18321;DHT22;54904;54.350;18.664;2022-11-13T11:29:15;16.70;99.90
18321;DHT22;54904;54.350;18.664;2022-11-13T11:32:06;16.60;99.90
18321;DHT22;54904;54.350;18.664;2022-11-13T11:34:58;16.60;99.90
18321;DHT22;54904;54.350;18.664;2022-11-13T11:37:54;16.70;99.90
18321;DHT22;54904;54.350;18.664;2022-11-13T11:40:44;16.70;99.90
18321;DHT22;54904;54.350;18.664;2022-11-13T11:43:38;16.60;99.90
18321;DHT22;54904;54.350;18.664;2022-11-13T11:46:25;16.60;99.90
18321;DHT22;54904;54.350;18.664;2022-11-13T11:49:11;16.60;99.90
18321;DHT22;54904;54.350;18.664;2022-11-13T11:52:05;16.60;99.90
18321;DHT22;54904;54.350;18.664;2022-11-13T11:55:01;16.60;99.90
18321;DHT22;54904;54.350;18.664;2022-11-13T11:57:56;16.60;99.90
18321;DHT22;54904;54.350;18.664;2022-11-13T12:00:48;16.60;99.90
18321;DHT22;54904;54.350;18.664;2022-11-13T12:03:52;16.60;99.90
18321;DHT22;54904;54.350;18.664;2022-11-13T12:06:47;16.50;99.90
18321;DHT22;54904;54.350;18.664;2022-11-13T12:09:37;16.60;99.90
18321;DHT22;54904;54.350;18.664;2022-11-13T12:12:37;16.60;99.90
18321;DHT22;54904;54.350;18.664;2022-11-13T12:15:33;16.60;99.90
18321;DHT22;54904;54.350;18.664;2022-11-13T12:18:28;16.60;99.90
18321;DHT22;54904;54.350;18.664;2022-11-13T12:21:25;16.60;99.90
18321;DHT22;54904;54.350;18.664;2022-11-13T12:24:33;16.60;99.90
18321;DHT22;54904;54.350;18.664;2022-11-13T12:27:29;16.60;99.90
18321;DHT22;54904;54.350;18.664;2022-11-13T12:30:17;16.60;99.90
18321;DHT22;54904;54.350;18.664;2022-11-13T12:33:17;16.60;99.90
18321;DHT22;54904;54.350;18.664;2022-11-13T12:36:08;16.70;99.90
18321;DHT22;54904;54.350;18.664;2022-11-13T12:39:00;16.60;99.90
18321;DHT22;54904;54.350;18.664;2022-11-13T12:41:51;16.70;99.90
18321;DHT22;54904;54.350;18.664;2022-11-13T12:44:46;16.70;99.90
18321;DHT22;54904;54.350;18.664;2022-11-13T12:47:33;16.60;99.90
18321;DHT22;54904;54.350;18.664;2022-11-13T12:50:23;16.60;99.90
18321;DHT22;54904;54.350;18.664;2022-11-13T12:53:11;16.60;99.90
18321;DHT22;54904;54.350;18.664;2022-11-13T12:55:58;16.60;99.90
18321;DHT22;54904;54.350;18.664;2022-11-13T12:58:55;16.80;99.90
18321;DHT22;54904;54.350;18.664;2022-11-13T13:01:46;16.50;99.90
18321;DHT22;54904;54.350;18.664;2022-11-13T13:04:48;16.50;99.90
18321;DHT22;54904;54.350;18.664;2022-11-13T13:11:10;16.50;99.90
18321;DHT22;54904;54.350;18.664;2022-11-13T13:14:13;16.40;99.90
18321;DHT22;54904;54.350;18.664;2022-11-13T13:17:15;16.40;99.90
18321;DHT22;54904;54.350;18.664;2022-11-13T13:20:04;16.40;99.90
18321;DHT22;54904;54.350;18.664;2022-11-13T13:22:54;16.40;99.90
18321;DHT22;54904;54.350;18.664;2022-11-13T13:25:40;16.40;99.90
18321;DHT22;54904;54.350;18.664;2022-11-13T13:28:26;16.50;99.90
18321;DHT22;54904;54.350;18.664;2022-11-13T13:31:24;16.40;99.90
18321;DHT22;54904;54.350;18.664;2022-11-13T13:34:24;16.40;99.90
18321;DHT22;54904;54.350;18.664;2022-11-13T13:37:20;16.40;99.90
18321;DHT22;54904;54.350;18.664;2022-11-13T13:40:18;16.40;99.90
18321;DHT22;54904;54.350;18.664;2022-11-13T13:43:21;16.40;99.90
18321;DHT22;54904;54.350;18.664;2022-11-13T13:46:13;16.30;99.90
18321;DHT22;54904;54.350;18.664;2022-11-13T13:49:03;16.20;99.90
18321;DHT22;54904;54.350;18.664;2022-11-13T13:51:53;16.20;99.90
18321;DHT22;54904;54.350;18.664;2022-11-13T13:54:40;16.20;99.90
18321;DHT22;54904;54.350;18.664;2022-11-13T13:57:27;16.10;99.90
18321;DHT22;54904;54.350;18.664;2022-11-13T14:00:15;16.10;99.90
18321;DHT22;54904;54.350;18.664;2022-11-13T14:03:02;16.10;99.90
18321;DHT22;54904;54.350;18.664;2022-11-13T14:05:47;16.00;99.90
18321;DHT22;54904;54.350;18.664;2022-11-13T14:08:34;16.00;99.90
18321;DHT22;54904;54.350;18.664;2022-11-13T14:11:21;16.00;99.90
18321;DHT22;54904;54.350;18.664;2022-11-13T14:14:15;16.00;99.90
18321;DHT22;54904;54.350;18.664;2022-11-13T14:17:01;16.10;99.90
18321;DHT22;54904;54.350;18.664;2022-11-13T14:19:48;16.00;99.90
18321;DHT22;54904;54.350;18.664;2022-11-13T14:22:34;16.00;99.90
18321;DHT22;54904;54.350;18.664;2022-11-13T14:25:24;16.00;99.90
18321;DHT22;54904;54.350;18.664;2022-11-13T14:28:14;15.90;99.90
18321;DHT22;54904;54.350;18.664;2022-11-13T14:31:02;15.90;99.90
18321;DHT22;54904;54.350;18.664;2022-11-13T14:33:49;15.90;99.90
18321;DHT22;54904;54.350;18.664;2022-11-13T14:36:35;15.90;99.90
18321;DHT22;54904;54.350;18.664;2022-11-13T14:39:24;15.90;99.90
18321;DHT22;54904;54.350;18.664;2022-11-13T14:42:16;15.90;99.90
18321;DHT22;54904;54.350;18.664;2022-11-13T14:45:13;15.90;99.90
18321;DHT22;54904;54.350;18.664;2022-11-13T14:48:00;15.90;99.90
18321;DHT22;54904;54.350;18.664;2022-11-13T14:50:51;15.90;99.90
18321;DHT22;54904;54.350;18.664;2022-11-13T14:53:40;15.90;99.90
18321;DHT22;54904;54.350;18.664;2022-11-13T14:56:34;15.90;99.90
18321;DHT22;54904;54.350;18.664;2022-11-13T14:59:26;15.90;99.90
18321;DHT22;54904;54.350;18.664;2022-11-13T15:02:12;16.00;99.90
18321;DHT22;54904;54.350;18.664;2022-11-13T15:04:58;15.90;99.90
18321;DHT22;54904;54.350;18.664;2022-11-13T15:07:44;16.00;99.90
18321;DHT22;54904;54.350;18.664;2022-11-13T15:10:30;15.90;99.90
18321;DHT22;54904;54.350;18.664;2022-11-13T15:13:17;16.00;99.90
18321;DHT22;54904;54.350;18.664;2022-11-13T15:16:05;16.00;99.90
18321;DHT22;54904;54.350;18.664;2022-11-13T15:18:53;16.00;99.90
18321;DHT22;54904;54.350;18.664;2022-11-13T15:21:39;16.00;99.90
18321;DHT22;54904;54.350;18.664;2022-11-13T15:24:25;16.00;99.90
18321;DHT22;54904;54.350;18.664;2022-11-13T15:27:13;16.00;99.90
18321;DHT22;54904;54.350;18.664;2022-11-13T15:29:59;16.00;99.90
18321;DHT22;54904;54.350;18.664;2022-11-13T15:32:46;16.00;99.90
18321;DHT22;54904;54.350;18.664;2022-11-13T15:35:36;16.00;99.90
18321;DHT22;54904;54.350;18.664;2022-11-13T15:38:22;16.00;99.90
18321;DHT22;54904;54.350;18.664;2022-11-13T15:41:10;16.00;99.90
18321;DHT22;54904;54.350;18.664;2022-11-13T15:43:57;16.00;99.90
18321;DHT22;54904;54.350;18.664;2022-11-13T15:46:42;16.00;99.90
18321;DHT22;54904;54.350;18.664;2022-11-13T15:49:29;16.00;99.90
18321;DHT22;54904;54.350;18.664;2022-11-13T15:52:15;16.00;99.90
18321;DHT22;54904;54.350;18.664;2022-11-13T15:55:01;16.00;99.90
18321;DHT22;54904;54.350;18.664;2022-11-13T15:57:47;16.00;99.90
18321;DHT22;54904;54.350;18.664;2022-11-13T16:00:33;16.10;99.90
18321;DHT22;54904;54.350;18.664;2022-11-13T16:03:19;16.10;99.90
18321;DHT22;54904;54.350;18.664;2022-11-13T16:06:10;16.00;99.90
18321;DHT22;54904;54.350;18.664;2022-11-13T16:08:56;16.10;99.90
18321;DHT22;54904;54.350;18.664;2022-11-13T16:11:42;16.00;99.90
18321;DHT22;54904;54.350;18.664;2022-11-13T16:14:27;16.00;99.90
18321;DHT22;54904;54.350;18.664;2022-11-13T16:17:15;16.00;99.90
18321;DHT22;54904;54.350;18.664;2022-11-13T16:20:03;16.00;99.90
18321;DHT22;54904;54.350;18.664;2022-11-13T16:22:52;16.00;99.90
18321;DHT22;54904;54.350;18.664;2022-11-13T16:25:38;16.00;99.90
18321;DHT22;54904;54.350;18.664;2022-11-13T16:28:23;16.00;99.90
18321;DHT22;54904;54.350;18.664;2022-11-13T16:31:09;16.00;99.90
18321;DHT22;54904;54.350;18.664;2022-11-13T16:33:55;16.00;99.90
18321;DHT22;54904;54.350;18.664;2022-11-13T16:36:41;15.90;99.90
18321;DHT22;54904;54.350;18.664;2022-11-13T16:39:28;15.90;99.90
18321;DHT22;54904;54.350;18.664;2022-11-13T16:42:14;15.90;99.90
18321;DHT22;54904;54.350;18.664;2022-11-13T16:44:59;15.90;99.90
18321;DHT22;54904;54.350;18.664;2022-11-13T16:47:45;15.90;99.90
18321;DHT22;54904;54.350;18.664;2022-11-13T16:50:33;15.90;99.90
18321;DHT22;54904;54.350;18.664;2022-11-13T16:53:19;15.90;99.90
18321;DHT22;54904;54.350;18.664;2022-11-13T16:56:11;15.90;99.90
18321;DHT22;54904;54.350;18.664;2022-11-13T16:58:58;15.90;99.90
18321;DHT22;54904;54.350;18.664;2022-11-13T17:01:43;15.90;99.90
18321;DHT22;54904;54.350;18.664;2022-11-13T17:04:29;16.00;99.90
18321;DHT22;54904;54.350;18.664;2022-11-13T17:07:14;15.90;99.90
18321;DHT22;54904;54.350;18.664;2022-11-13T17:10:00;15.90;99.90
18321;DHT22;54904;54.350;18.664;2022-11-13T17:12:50;15.90;99.90
18321;DHT22;54904;54.350;18.664;2022-11-13T17:15:35;15.90;99.90
18321;DHT22;54904;54.350;18.664;2022-11-13T17:18:21;15.90;99.90
18321;DHT22;54904;54.350;18.664;2022-11-13T17:21:06;15.90;99.90
18321;DHT22;54904;54.350;18.664;2022-11-13T17:23:56;15.80;99.90
18321;DHT22;54904;54.350;18.664;2022-11-13T17:26:41;15.80;99.90